Ana Sayfa
METAR-TAF:

METAR-TAF

Havaalanları :

Ferit Melen Havalimanı

Van, Türkiye

Enlem: 38-27N, Boylam: 043-19E, yükseklik: 1667 m

Güncel hava durumu gözlemi

Rapor saat 14:50 UTC de 34 dakika önce yapıldı.
Rüzgar güney/güneydoğudan 4 kt
Sıcaklık -4°C
Nem 80%
Basınç 1022 hPa
Görüş mesafesi: 3400 m
3500 ft yükseklikte parçalı bulutlu
Pus

METAR: LTCI 201450Z 15004KT 7000 3400NE BR SCT035 M04/M07 Q1022 NOSIG

Saat: 18:24 (15:24 UTC)

Tahmin

Rapor saat 13:40 UTC de 1 saat ve 44 dakika önce yapıldı.
Ayın 20'si saat 15 UTC'den ayın 20'si saat 24 UTC'ye kadar geçerli Tahmin
Rüzgar değişken yönden 2 kt
Görüş mesafesi: 7000 m
3500 ft yükseklikte parçalı bulutlu

TAF: LTCI 201340Z 2015/2024 VRB02KT 7000 SCT035

4.000'den fazla havaalanı için hava durumu gözlemleri ve tahminleri (METAR ve TAF raporları).

Kullanılabilir istasyonlar harita üzerinde sarı ve kırmızı noktalarla gösterilir.

İstasyonun adını görmek için fareyi noktanın üzerinde gezdirin.

Sonrasında hava gözlem ve tahminlerini görmek için tıklayın.

Haritayı değiştirmek için: yaklaştırmak için siyah artı işaretli yeşil düğmeye ve uzaklaştırmak için de eksi işaretli düğmeye hızla tıklayın; bitişik haritalar için yeşil okları kullanın.


METAR-TAF: